Weather History for Marysville, OH

Change the Weather History Date:

Saturday, January 5, 2013

  Actual Average (KDLZ) Record (KDLZ)
Temperature  
Mean Temperature 22 °F -  
Max Temperature 34 °F 35 °F 61 °F (1939)
Min Temperature 9 °F 17 °F -9 °F (1981)
Degree Days  
Heating Degree Days 44    
Moisture  
Dew Point 19 °F    
Average Humidity 78    
Maximum Humidity 93    
Minimum Humidity 68    
Precipitation  
Precipitation 0.00 in - - ()
Sea Level Pressure  
Sea Level Pressure 30.25 in    
Wind  
Wind Speed 8 mph (SW)    
Max Wind Speed 13 mph    
Max Gust Speed -    
Visibility 8 miles    
Events      
Averages and records for this station are not official NWS values.
T = Trace of Precipitation, MM = Missing Value Source: NWS Daily Summary

Daily Weather History Graph

Daily Weather History Graph

Search for Another Location

Airport:

Trip Planner

Search our weather history database for the weather conditions in past years. The results will help you decide how hot, cold, wet, or windy it might be!

Date:

Astronomy

Jan. 05, 2013 Rise Set
Actual Time 7:56 AM EST 5:22 PM EST
Civil Twilight 7:25 AM EST 5:52 PM EST
Nautical Twilight 6:51 AM EST 6:26 PM EST
Astronomical Twilight 6:18 AM EST 6:59 PM EST
Moon 1:01 AM EST (1/5) 12:11 PM EST (1/5)
Length of Visible Light 10h 26m
Length of Day
9h 25m
Last Quarter, 44% of the Moon is Illuminated
Jan 5
Last Quarter
Jan 11
New
Jan 18
First Quarter
Jan 26
Full
Feb 3
Last Quarter

Hourly Weather History & Observations

Time (EST) Temp. Windchill Dew Point Humidity Pressure Visibility Wind Dir Wind Speed Gust Speed Precip Events Conditions
12:14 AM 24.1 °F 12.5 °F 15.6 °F 70% 30.28 in 10.0 mi West 12.7 mph - N/A   Clear
12:34 AM 23.7 °F 12.1 °F 15.6 °F 71% 30.28 in 10.0 mi West 12.7 mph - N/A   Clear
12:54 AM 23.2 °F 13.3 °F 15.8 °F 73% 30.28 in 10.0 mi West 9.2 mph - N/A   Clear
1:13 AM 22.5 °F 14.1 °F 15.4 °F 74% 30.28 in 10.0 mi WSW 6.9 mph - N/A   Clear
1:34 AM 22.1 °F 12.0 °F 15.6 °F 76% 30.29 in 10.0 mi WSW 9.2 mph - N/A   Clear
1:54 AM 22.6 °F 12.6 °F 15.8 °F 75% 30.29 in 10.0 mi West 9.2 mph - N/A   Clear
2:13 AM 21.6 °F 13.0 °F 15.4 °F 77% 30.29 in 10.0 mi WSW 6.9 mph - N/A   Clear
2:34 AM 21.0 °F 14.6 °F 15.4 °F 79% 30.29 in 10.0 mi SW 4.6 mph - N/A   Clear
2:54 AM 18.7 °F 10.6 °F 14.2 °F 83% 30.30 in 10.0 mi WSW 5.8 mph - N/A   Clear
3:13 AM 19.2 °F 9.3 °F 14.7 °F 83% 30.30 in 10.0 mi WSW 8.1 mph - N/A   Clear
3:34 AM 20.8 °F 14.4 °F 15.8 °F 81% 30.30 in 10.0 mi SSW 4.6 mph - N/A   Clear
3:54 AM 21.2 °F - 16.2 °F 81% 30.29 in 10.0 mi Calm Calm - N/A   Clear
4:14 AM 14.2 °F 8.4 °F 10.2 °F 84% 30.29 in 7.0 mi SSW 3.5 mph - N/A   Clear
4:34 AM 13.6 °F 2.5 °F 11.3 °F 90% 30.31 in 7.0 mi SW 8.1 mph - N/A   Clear
4:54 AM 14.5 °F 3.6 °F 10.6 °F 84% 30.31 in 7.0 mi SW 8.1 mph - N/A   Clear
5:14 AM 14.5 °F 7.1 °F 12.0 °F 90% 30.30 in 7.0 mi SW 4.6 mph - N/A   Clear
5:34 AM 14.5 °F 8.8 °F 12.0 °F 90% 30.30 in 7.0 mi SSW 3.5 mph - N/A   Clear
5:54 AM 13.3 °F 7.3 °F 11.1 °F 91% 30.31 in 5.0 mi SSW 3.5 mph - N/A   Clear
6:14 AM 16.7 °F 7.2 °F 14.9 °F 93% 30.32 in 5.0 mi SW 6.9 mph - N/A   Clear
6:34 AM 16.3 °F 9.2 °F 14.2 °F 91% 30.31 in 7.0 mi SSW 4.6 mph - N/A   Clear
6:53 AM 13.6 °F 6.0 °F 11.7 °F 92% 30.31 in 5.0 mi South 4.6 mph - N/A   Clear
7:14 AM 9.3 °F 2.8 °F 6.8 °F 89% 30.33 in 3.0 mi SW 3.5 mph - N/A   Clear
7:34 AM 9.5 °F 3.0 °F 7.2 °F 90% 30.33 in 4.0 mi SW 3.5 mph - N/A   Clear
7:53 AM 12.2 °F 4.3 °F 9.7 °F 90% 30.33 in 2.5 mi SSW 4.6 mph - N/A   Clear
8:14 AM 10.6 °F 1.0 °F 8.4 °F 91% 30.33 in 2.5 mi South 5.8 mph - N/A   Clear
8:34 AM 16.7 °F 8.3 °F 14.7 °F 92% 30.33 in 5.0 mi South 5.8 mph - N/A   Clear
8:53 AM 16.3 °F 10.8 °F 13.6 °F 89% 30.32 in 5.0 mi South 3.5 mph - N/A   Clear
9:14 AM 16.7 °F 9.6 °F 14.5 °F 91% 30.31 in 5.0 mi South 4.6 mph - N/A   Clear
9:34 AM 18.3 °F 13.1 °F 16.2 °F 91% 30.32 in 5.0 mi South 3.5 mph - N/A   Clear
9:54 AM 20.3 °F 11.5 °F 18.0 °F 91% 30.32 in 5.0 mi SSW 6.9 mph - N/A   Clear
10:14 AM 21.6 °F 13.0 °F 17.6 °F 85% 30.33 in 7.0 mi SSW 6.9 mph - N/A   Clear
10:54 AM 23.9 °F 16.8 °F 18.1 °F 79% 30.32 in 7.0 mi South 5.8 mph - N/A   Clear
11:14 AM 25.3 °F 18.5 °F 18.7 °F 76% 30.32 in 7.0 mi SSW 5.8 mph - N/A   Clear
11:54 AM 27.7 °F 20.4 °F 20.3 °F 74% 30.30 in 7.0 mi SW 6.9 mph - N/A   Clear
12:14 PM 28.8 °F 20.2 °F 21.6 °F 74% 30.28 in 7.0 mi SW 9.2 mph - N/A   Clear
12:34 PM 29.8 °F 21.5 °F 22.6 °F 75% 30.27 in 10.0 mi SW 9.2 mph - N/A   Clear
12:54 PM 31.5 °F 23.5 °F 23.0 °F 71% 30.25 in 10.0 mi SSW 9.2 mph - N/A   Clear
1:14 PM 32.0 °F 24.2 °F 23.4 °F 70% 30.24 in 10.0 mi SW 9.2 mph - N/A   Clear
1:34 PM 32.9 °F 25.3 °F 23.7 °F 69% 30.23 in 10.0 mi SSW 9.2 mph - N/A   Clear
1:54 PM 32.2 °F 23.2 °F 24.1 °F 72% 30.22 in 10.0 mi SSW 11.5 mph - N/A   Clear
2:13 PM 32.5 °F 23.2 °F 24.6 °F 73% 30.20 in 10.0 mi South 12.7 mph - N/A   Clear
2:34 PM 33.8 °F 25.8 °F 24.4 °F 69% 30.20 in 10.0 mi SSW 10.4 mph - N/A   Clear
2:54 PM 34.0 °F 25.5 °F 24.8 °F 69% 30.20 in 10.0 mi SSW 11.5 mph - N/A   Clear
3:13 PM 33.8 °F 25.8 °F 25.3 °F 71% 30.19 in 10.0 mi SSW 10.4 mph - N/A   Clear
3:34 PM 32.9 °F 24.7 °F 25.0 °F 73% 30.20 in 10.0 mi SW 10.4 mph - N/A   Clear
3:54 PM 33.3 °F 27.1 °F 25.5 °F 73% 30.19 in 10.0 mi SSW 6.9 mph - N/A   Scattered Clouds
4:13 PM 33.3 °F 25.7 °F 25.7 °F 74% 30.18 in 10.0 mi SSW 9.2 mph - N/A   Overcast
4:34 PM 33.3 °F 25.1 °F 25.9 °F 74% 30.19 in 10.0 mi SW 10.4 mph - N/A   Overcast
4:54 PM 33.4 °F 25.9 °F 26.4 °F 75% 30.18 in 10.0 mi SW 9.2 mph - N/A   Overcast
5:14 PM 33.8 °F 25.8 °F 26.6 °F 75% 30.18 in 10.0 mi SSW 10.4 mph - N/A   Overcast
6:14 PM 33.8 °F 25.3 °F 27.1 °F 77% 30.20 in 10.0 mi SW 11.5 mph - N/A   Overcast
6:34 PM 33.8 °F 25.3 °F 27.0 °F 76% 30.19 in 10.0 mi SW 11.5 mph - N/A   Overcast
6:54 PM 33.8 °F 25.3 °F 27.0 °F 76% 30.17 in 10.0 mi SW 11.5 mph - N/A   Overcast
7:14 PM 33.8 °F 25.8 °F 26.6 °F 75% 30.17 in 10.0 mi SW 10.4 mph - N/A   Overcast
7:34 PM 33.8 °F 25.3 °F 26.6 °F 75% 30.17 in 10.0 mi SW 11.5 mph - N/A   Overcast
7:54 PM 33.8 °F 25.8 °F 26.4 °F 74% 30.16 in 10.0 mi SW 10.4 mph - N/A   Overcast
8:14 PM 34.0 °F 26.0 °F 25.7 °F 72% 30.16 in 10.0 mi SW 10.4 mph - N/A   Overcast
8:54 PM 34.0 °F 27.2 °F 24.8 °F 69% 30.15 in 10.0 mi SW 8.1 mph - N/A   Overcast
9:14 PM 33.6 °F 26.8 °F 24.8 °F 70% 30.15 in 10.0 mi SW 8.1 mph - N/A   Overcast
9:34 PM 33.8 °F 26.4 °F 24.8 °F 70% 30.15 in 10.0 mi WSW 9.2 mph - N/A   Overcast
9:54 PM 34.3 °F 26.5 °F 24.6 °F 68% 30.15 in 10.0 mi WSW 10.4 mph - N/A   Overcast
10:14 PM 34.2 °F 26.8 °F 24.4 °F 68% 30.15 in 10.0 mi WSW 9.2 mph - N/A   Overcast
10:34 PM 34.0 °F 28.0 °F 24.6 °F 69% 30.15 in 10.0 mi WSW 6.9 mph - N/A   Overcast
10:54 PM 33.1 °F 26.9 °F 24.8 °F 72% 30.15 in 10.0 mi SW 6.9 mph - N/A   Overcast
11:14 PM 32.7 °F 27.3 °F 25.3 °F 74% 30.14 in 10.0 mi WSW 5.8 mph - N/A   Overcast
11:34 PM 32.9 °F 25.3 °F 25.2 °F 73% 30.13 in 10.0 mi WSW 9.2 mph - N/A   Overcast
11:54 PM 33.1 °F 25.5 °F 24.6 °F 71% 30.12 in 10.0 mi WSW 9.2 mph - N/A   Overcast